createdAt,value
2022-11-11T00:01:08.056Z,24.30
2022-11-11T00:03:58.352Z,24.30
2022-11-11T00:06:49.396Z,24.40
2022-11-11T00:09:39.196Z,24.40
2022-11-11T00:12:28.821Z,24.50
2022-11-11T00:15:18.813Z,24.60
2022-11-11T00:18:31.123Z,24.60
2022-11-11T00:21:40.982Z,24.70
2022-11-11T00:24:51.710Z,24.70
2022-11-11T00:27:42.255Z,24.60
2022-11-11T00:30:31.886Z,24.70
2022-11-11T00:33:21.978Z,24.70
2022-11-11T00:36:11.934Z,24.70
2022-11-11T00:39:02.008Z,24.90
2022-11-11T00:41:51.705Z,24.90
2022-11-11T00:44:41.757Z,25.00
2022-11-11T00:47:51.354Z,25.00
2022-11-11T00:51:00.646Z,25.20
2022-11-11T00:53:50.320Z,25.60
2022-11-11T00:56:41.658Z,25.80
2022-11-11T00:59:31.293Z,25.80
2022-11-11T01:02:21.596Z,26.10
2022-11-11T01:05:11.792Z,26.10
2022-11-11T01:08:02.096Z,26.20
2022-11-11T01:10:52.125Z,26.40
2022-11-11T01:13:42.118Z,26.60
2022-11-11T01:16:31.778Z,26.60
2022-11-11T01:19:21.883Z,26.60
2022-11-11T01:22:11.535Z,26.80
2022-11-11T01:25:01.580Z,26.90
2022-11-11T01:27:51.914Z,27.10
2022-11-11T01:30:42.118Z,27.20
2022-11-11T01:33:32.573Z,27.30
2022-11-11T01:36:25.475Z,27.30
2022-11-11T01:39:15.218Z,27.50
2022-11-11T01:42:06.420Z,27.70
2022-11-11T01:44:56.272Z,28.10
2022-11-11T01:51:27.359Z,28.60
2022-11-11T01:54:29.991Z,28.30
2022-11-11T01:57:40.796Z,28.10
2022-11-11T02:00:31.578Z,28.20
2022-11-11T02:03:26.228Z,28.50
2022-11-11T02:06:17.423Z,28.40
2022-11-11T02:09:08.352Z,28.10
2022-11-11T02:12:23.002Z,27.90
2022-11-11T02:15:14.892Z,28.10
2022-11-11T02:18:04.906Z,28.20
2022-11-11T02:20:54.565Z,28.50
2022-11-11T02:24:11.819Z,28.60
2022-11-11T02:27:03.198Z,28.40
2022-11-11T02:29:57.165Z,28.50
2022-11-11T02:32:49.475Z,28.70
2022-11-11T02:35:46.016Z,28.70
2022-11-11T02:38:36.559Z,29.00
2022-11-11T02:41:46.120Z,28.90
2022-11-11T02:44:36.201Z,29.50
2022-11-11T02:47:26.651Z,29.80
2022-11-11T02:50:17.861Z,29.80
2022-11-11T02:53:07.994Z,30.20
2022-11-11T02:55:58.695Z,30.30
2022-11-11T02:58:48.462Z,30.60
2022-11-11T03:01:38.284Z,30.60
2022-11-11T03:04:28.742Z,30.60
2022-11-11T03:07:18.948Z,30.90
2022-11-11T03:10:09.917Z,31.20
2022-11-11T03:13:00.241Z,31.30
2022-11-11T03:15:51.159Z,31.20
2022-11-11T03:18:41.430Z,31.40
2022-11-11T03:25:01.146Z,31.10
2022-11-11T03:27:51.146Z,31.30
2022-11-11T03:30:43.156Z,31.50
2022-11-11T03:33:32.761Z,31.30
2022-11-11T03:36:22.542Z,31.60
2022-11-11T03:39:12.532Z,31.80
2022-11-11T03:42:02.254Z,32.30
2022-11-11T03:44:52.175Z,32.50
2022-11-11T03:47:41.888Z,32.30
2022-11-11T03:50:31.611Z,32.60
2022-11-11T03:53:23.477Z,32.50
2022-11-11T03:56:13.834Z,32.50
2022-11-11T03:59:03.935Z,32.40
2022-11-11T04:02:13.650Z,32.70
2022-11-11T04:05:22.897Z,33.00
2022-11-11T04:08:37.224Z,32.70
2022-11-11T04:11:33.551Z,32.40
2022-11-11T04:14:43.120Z,32.70
2022-11-11T04:17:33.250Z,32.40
2022-11-11T04:20:43.203Z,32.20
2022-11-11T04:23:33.027Z,32.20
2022-11-11T04:26:22.927Z,32.70
2022-11-11T04:29:32.600Z,32.30
2022-11-11T04:32:44.479Z,31.70
2022-11-11T04:35:34.652Z,32.70
2022-11-11T04:38:44.182Z,32.50
2022-11-11T04:42:01.759Z,32.20
2022-11-11T04:45:04.238Z,32.70
2022-11-11T04:48:08.509Z,32.20
2022-11-11T04:50:58.504Z,32.10
2022-11-11T04:53:48.187Z,31.90
2022-11-11T04:56:57.899Z,32.20
2022-11-11T04:59:47.519Z,32.40
2022-11-11T05:02:56.877Z,33.00
2022-11-11T05:06:21.536Z,33.60
2022-11-11T05:09:11.909Z,33.80
2022-11-11T05:12:02.339Z,33.90
2022-11-11T05:15:12.221Z,34.00
2022-11-11T05:18:22.299Z,33.80
2022-11-11T05:21:25.524Z,33.90
2022-11-11T05:24:35.314Z,34.00
2022-11-11T05:27:25.550Z,34.50
2022-11-11T05:30:17.661Z,34.10
2022-11-11T05:33:07.406Z,34.50
2022-11-11T05:35:57.048Z,34.50
2022-11-11T05:38:47.027Z,34.70
2022-11-11T05:41:36.831Z,34.20
2022-11-11T05:44:26.555Z,33.70
2022-11-11T05:47:16.725Z,33.50
2022-11-11T05:50:07.440Z,33.10
2022-11-11T05:52:57.965Z,33.50
2022-11-11T05:55:48.252Z,34.40
2022-11-11T05:58:38.118Z,34.50
2022-11-11T06:01:28.274Z,34.60
2022-11-11T06:04:18.732Z,35.10
2022-11-11T06:07:08.453Z,34.90
2022-11-11T06:10:18.141Z,35.00
2022-11-11T06:13:11.751Z,34.30
2022-11-11T06:16:02.403Z,34.10
2022-11-11T06:18:53.191Z,35.10
2022-11-11T06:22:02.794Z,35.10
2022-11-11T06:25:12.412Z,34.90
2022-11-11T06:28:02.938Z,34.40
2022-11-11T06:30:53.714Z,34.30
2022-11-11T06:33:44.117Z,33.90
2022-11-11T06:36:33.781Z,33.80
2022-11-11T06:39:23.817Z,33.70
2022-11-11T06:42:13.504Z,34.50
2022-11-11T06:45:03.536Z,35.00
2022-11-11T06:47:53.623Z,34.70
2022-11-11T06:50:47.109Z,34.00
2022-11-11T06:53:38.232Z,33.50
2022-11-11T06:56:28.298Z,33.50
2022-11-11T06:59:18.381Z,34.40
2022-11-11T07:02:09.322Z,34.90
2022-11-11T07:04:59.446Z,35.30
2022-11-11T07:07:49.837Z,35.30
2022-11-11T07:10:43.058Z,35.00
2022-11-11T07:13:33.474Z,35.10
2022-11-11T07:16:23.959Z,34.60
2022-11-11T07:19:14.196Z,34.30
2022-11-11T07:22:04.248Z,34.80
2022-11-11T07:24:54.339Z,34.90
2022-11-11T07:27:45.602Z,34.90
2022-11-11T07:30:35.675Z,35.20
2022-11-11T07:33:26.062Z,35.30
2022-11-11T07:36:16.105Z,35.60
2022-11-11T07:39:08.932Z,35.60
2022-11-11T07:41:59.159Z,34.90
2022-11-11T07:44:49.825Z,34.70
2022-11-11T07:47:40.274Z,34.10
2022-11-11T07:50:30.333Z,33.70
2022-11-11T07:53:20.424Z,33.70
2022-11-11T07:56:10.542Z,33.80
2022-11-11T07:59:00.180Z,34.30
2022-11-11T08:01:50.306Z,34.70
2022-11-11T08:04:40.648Z,35.00
2022-11-11T08:07:30.419Z,34.90
2022-11-11T08:10:20.548Z,35.20
2022-11-11T08:13:33.879Z,35.20
2022-11-11T08:16:24.844Z,35.10
2022-11-11T08:19:15.018Z,35.10
2022-11-11T08:22:06.115Z,35.50
2022-11-11T08:25:03.539Z,35.70
2022-11-11T08:28:08.866Z,35.30
2022-11-11T08:31:04.223Z,35.50
2022-11-11T08:33:54.705Z,35.50
2022-11-11T08:36:45.525Z,35.40
2022-11-11T08:39:35.542Z,34.80
2022-11-11T08:42:25.707Z,34.70
2022-11-11T08:45:16.089Z,34.60
2022-11-11T08:48:06.840Z,34.80
2022-11-11T08:50:56.885Z,34.80
2022-11-11T08:53:46.949Z,34.80
2022-11-11T08:56:36.559Z,34.90
2022-11-11T08:59:26.197Z,34.90
2022-11-11T09:02:17.450Z,34.70
2022-11-11T09:05:11.339Z,34.80
2022-11-11T09:08:08.991Z,34.70
2022-11-11T09:11:01.664Z,34.60
2022-11-11T09:13:51.853Z,34.40
2022-11-11T09:16:42.565Z,34.50
2022-11-11T09:19:32.639Z,34.50
2022-11-11T09:22:23.005Z,34.40
2022-11-11T09:25:12.973Z,34.40
2022-11-11T09:28:04.153Z,34.40
2022-11-11T09:30:54.606Z,34.30
2022-11-11T09:33:45.017Z,34.30
2022-11-11T09:36:35.654Z,34.10
2022-11-11T09:39:26.177Z,34.10
2022-11-11T09:42:55.011Z,34.10
2022-11-11T09:46:24.129Z,34.00
2022-11-11T09:49:53.289Z,33.90
2022-11-11T09:53:06.405Z,33.90
2022-11-11T09:56:30.775Z,33.90
2022-11-11T09:59:30.014Z,33.90
2022-11-11T10:02:48.726Z,33.80
2022-11-11T10:05:56.306Z,33.60
2022-11-11T10:09:04.108Z,33.60
2022-11-11T10:12:14.625Z,33.40
2022-11-11T10:15:07.276Z,33.30
2022-11-11T10:18:24.908Z,33.20
2022-11-11T10:21:26.700Z,33.10
2022-11-11T10:24:23.865Z,33.10
2022-11-11T10:27:24.818Z,33.00
2022-11-11T10:30:35.011Z,32.90
2022-11-11T10:33:45.864Z,32.70
2022-11-11T10:36:37.523Z,32.60
2022-11-11T10:39:54.224Z,32.60
2022-11-11T10:42:44.639Z,32.60
2022-11-11T10:45:47.479Z,32.50
2022-11-11T10:49:02.789Z,32.50
2022-11-11T10:52:00.709Z,32.40
2022-11-11T10:55:05.410Z,32.30
2022-11-11T10:58:34.201Z,32.30
2022-11-11T11:01:34.849Z,32.30
2022-11-11T11:04:46.081Z,32.20
2022-11-11T11:07:57.466Z,32.10
2022-11-11T11:10:55.667Z,31.80
2022-11-11T11:13:52.309Z,31.90
2022-11-11T11:16:49.804Z,31.90
2022-11-11T11:19:39.813Z,31.80
2022-11-11T11:22:55.687Z,31.70
2022-11-11T11:25:58.568Z,31.00
2022-11-11T11:29:03.734Z,30.80
2022-11-11T11:31:53.709Z,30.80
2022-11-11T11:34:50.320Z,31.20
2022-11-11T11:37:59.879Z,31.20
2022-11-11T11:40:57.932Z,31.30
2022-11-11T11:43:48.722Z,31.30
2022-11-11T11:46:46.363Z,31.20
2022-11-11T11:50:03.671Z,30.70
2022-11-11T11:53:33.102Z,30.40
2022-11-11T11:56:50.543Z,30.30
2022-11-11T11:59:51.481Z,30.50
2022-11-11T12:03:15.027Z,30.30
2022-11-11T12:06:38.732Z,30.10
2022-11-11T12:09:42.892Z,30.20
2022-11-11T12:12:58.181Z,30.30
2022-11-11T12:16:04.737Z,30.70
2022-11-11T12:19:33.716Z,30.70
2022-11-11T12:23:02.850Z,30.70
2022-11-11T12:26:13.571Z,30.80
2022-11-11T12:29:31.617Z,30.70
2022-11-11T12:32:50.820Z,30.60
2022-11-11T12:36:13.719Z,30.60
2022-11-11T12:39:43.375Z,30.50
2022-11-11T12:43:12.460Z,30.60
2022-11-11T12:46:27.636Z,30.40
2022-11-11T12:49:56.792Z,30.20
2022-11-11T12:53:17.175Z,30.40
2022-11-11T12:56:36.841Z,30.50
2022-11-11T13:00:02.131Z,30.50
2022-11-11T13:03:31.452Z,30.20
2022-11-11T13:06:45.882Z,29.90
2022-11-11T13:10:02.421Z,30.00
2022-11-11T13:13:17.617Z,29.90
2022-11-11T13:16:10.128Z,29.40
2022-11-11T13:19:21.322Z,29.30
2022-11-11T13:22:37.195Z,29.40
2022-11-11T13:25:32.295Z,29.80
2022-11-11T13:28:42.282Z,29.70
2022-11-11T13:31:38.702Z,29.70
2022-11-11T13:34:36.126Z,29.20
2022-11-11T13:37:30.734Z,29.10
2022-11-11T13:40:37.194Z,29.20
2022-11-11T13:43:44.434Z,29.40
2022-11-11T13:46:49.773Z,29.20
2022-11-11T13:50:08.992Z,29.10
2022-11-11T13:53:04.885Z,28.60
2022-11-11T13:56:02.603Z,29.00
2022-11-11T13:58:53.787Z,29.00
2022-11-11T14:01:44.522Z,28.80
2022-11-11T14:05:13.471Z,28.60
2022-11-11T14:08:06.576Z,28.30
2022-11-11T14:11:01.326Z,28.40
2022-11-11T14:13:51.964Z,28.20
2022-11-11T14:17:02.945Z,28.10
2022-11-11T14:19:55.666Z,28.20
2022-11-11T14:22:46.098Z,28.20
2022-11-11T14:25:37.648Z,28.20
2022-11-11T14:28:34.142Z,28.40
2022-11-11T14:31:51.498Z,28.40
2022-11-11T14:35:21.827Z,28.40
2022-11-11T14:38:42.670Z,28.40
2022-11-11T14:41:51.743Z,28.10
2022-11-11T14:44:44.474Z,28.00
2022-11-11T14:47:43.689Z,28.00
2022-11-11T14:50:48.984Z,27.90
2022-11-11T14:53:43.525Z,28.10
2022-11-11T14:56:34.571Z,28.00
2022-11-11T14:59:27.798Z,27.80
2022-11-11T15:02:31.872Z,28.00
2022-11-11T15:05:47.316Z,27.70
2022-11-11T15:09:09.958Z,27.40
2022-11-11T15:12:42.879Z,27.20
2022-11-11T15:15:44.720Z,27.40
2022-11-11T15:19:06.341Z,27.60
2022-11-11T15:22:35.674Z,27.60
2022-11-11T15:25:51.694Z,27.70
2022-11-11T15:29:08.867Z,27.30
2022-11-11T15:32:34.366Z,27.30
2022-11-11T15:35:52.815Z,27.70
2022-11-11T15:38:43.931Z,27.70
2022-11-11T15:41:44.155Z,27.60
2022-11-11T15:44:36.933Z,27.70
2022-11-11T15:47:31.742Z,27.60
2022-11-11T15:50:42.173Z,27.20
2022-11-11T15:53:32.477Z,27.30
2022-11-11T15:56:33.616Z,27.00
2022-11-11T15:59:37.470Z,27.00
2022-11-11T16:02:31.600Z,27.20
2022-11-11T16:05:29.062Z,27.30
2022-11-11T16:08:22.226Z,27.40
2022-11-11T16:11:16.895Z,27.50
2022-11-11T16:14:08.653Z,27.00
2022-11-11T16:17:01.822Z,27.00
2022-11-11T16:19:53.076Z,27.20
2022-11-11T16:22:49.664Z,27.30
2022-11-11T16:25:41.051Z,27.20
2022-11-11T16:28:43.585Z,27.20
2022-11-11T16:31:44.889Z,27.00
2022-11-11T16:34:39.815Z,26.80
2022-11-11T16:37:30.260Z,26.80
2022-11-11T16:40:36.726Z,26.80
2022-11-11T16:43:44.936Z,27.00
2022-11-11T16:46:43.410Z,26.90
2022-11-11T16:49:43.382Z,26.80
2022-11-11T16:52:41.243Z,26.40
2022-11-11T16:55:49.737Z,26.50
2022-11-11T16:58:44.163Z,26.60
2022-11-11T17:01:46.530Z,26.80
2022-11-11T17:04:59.663Z,26.80
2022-11-11T17:07:49.415Z,26.90
2022-11-11T17:10:42.197Z,26.90
2022-11-11T17:13:34.039Z,26.90
2022-11-11T17:16:25.846Z,26.80
2022-11-11T17:19:15.483Z,26.70
2022-11-11T17:22:13.867Z,26.20
2022-11-11T17:25:03.855Z,26.20
2022-11-11T17:27:53.567Z,26.20
2022-11-11T17:30:43.628Z,26.20
2022-11-11T17:33:33.266Z,26.30
2022-11-11T17:36:23.303Z,26.30
2022-11-11T17:39:13.784Z,26.20
2022-11-11T17:42:03.425Z,26.30
2022-11-11T17:44:53.456Z,26.20
2022-11-11T17:47:44.146Z,26.20
2022-11-11T17:50:34.855Z,26.20
2022-11-11T17:53:25.822Z,26.20
2022-11-11T17:56:16.103Z,26.20
2022-11-11T17:59:05.995Z,26.20
2022-11-11T18:01:56.154Z,26.10
2022-11-11T18:04:46.351Z,26.10
2022-11-11T18:07:43.933Z,26.20
2022-11-11T18:10:35.790Z,26.20
2022-11-11T18:13:26.155Z,26.20
2022-11-11T18:16:20.393Z,26.10
2022-11-11T18:19:10.154Z,26.00
2022-11-11T18:22:00.621Z,26.10
2022-11-11T18:24:50.972Z,26.10
2022-11-11T18:27:40.646Z,25.80
2022-11-11T18:30:30.749Z,25.90
2022-11-11T18:33:21.050Z,25.80
2022-11-11T18:36:12.552Z,25.50
2022-11-11T18:39:02.415Z,25.70
2022-11-11T18:41:52.137Z,25.80
2022-11-11T18:44:42.624Z,25.70
2022-11-11T18:47:32.664Z,25.50
2022-11-11T18:50:23.101Z,25.60
2022-11-11T18:53:13.140Z,25.60
2022-11-11T18:56:15.568Z,25.70
2022-11-11T18:59:06.259Z,25.60
2022-11-11T19:01:56.795Z,25.50
2022-11-11T19:04:47.290Z,25.50
2022-11-11T19:07:37.362Z,25.50
2022-11-11T19:10:27.379Z,25.30
2022-11-11T19:13:17.024Z,25.30
2022-11-11T19:16:16.268Z,25.40
2022-11-11T19:19:06.483Z,25.40
2022-11-11T19:21:56.558Z,25.40
2022-11-11T19:24:46.497Z,25.40
2022-11-11T19:27:36.184Z,25.30
2022-11-11T19:30:26.096Z,25.30
2022-11-11T19:33:16.111Z,25.20
2022-11-11T19:36:12.288Z,25.10
2022-11-11T19:39:04.291Z,25.10
2022-11-11T19:41:54.196Z,25.20
2022-11-11T19:44:43.901Z,25.30
2022-11-11T19:47:34.412Z,25.30
2022-11-11T19:50:24.573Z,25.20
2022-11-11T19:53:15.717Z,25.00
2022-11-11T19:56:14.291Z,25.00
2022-11-11T19:59:04.922Z,25.00
2022-11-11T20:01:54.749Z,25.10
2022-11-11T20:04:44.980Z,25.20
2022-11-11T20:07:35.246Z,25.20
2022-11-11T20:10:25.355Z,25.00
2022-11-11T20:13:15.522Z,24.80
2022-11-11T20:16:07.074Z,24.60
2022-11-11T20:19:00.282Z,24.50
2022-11-11T20:21:50.438Z,24.50
2022-11-11T20:24:40.727Z,24.50
2022-11-11T20:27:30.837Z,24.50
2022-11-11T20:30:21.018Z,24.50
2022-11-11T20:33:11.361Z,24.60
2022-11-11T20:36:06.076Z,24.60
2022-11-11T20:38:57.074Z,24.70
2022-11-11T20:41:47.488Z,24.80
2022-11-11T20:44:37.628Z,24.80
2022-11-11T20:47:33.044Z,24.60
2022-11-11T20:50:24.396Z,24.50
2022-11-11T20:53:14.502Z,24.40
2022-11-11T20:56:10.799Z,24.50
2022-11-11T20:59:00.641Z,24.30
2022-11-11T21:01:50.471Z,24.40
2022-11-11T21:04:41.277Z,24.50
2022-11-11T21:07:31.015Z,24.40
2022-11-11T21:10:20.971Z,24.20
2022-11-11T21:13:11.616Z,24.50
2022-11-11T21:16:17.105Z,24.60
2022-11-11T21:19:07.917Z,24.60
2022-11-11T21:21:58.395Z,24.30
2022-11-11T21:24:48.446Z,24.40
2022-11-11T21:27:38.156Z,24.30
2022-11-11T21:30:28.126Z,24.10
2022-11-11T21:33:17.712Z,24.00
2022-11-11T21:36:10.672Z,24.00
2022-11-11T21:39:05.316Z,24.10
2022-11-11T21:41:55.042Z,24.10
2022-11-11T21:44:45.136Z,24.20
2022-11-11T21:47:35.138Z,24.30
2022-11-11T21:50:25.199Z,24.40
2022-11-11T21:53:14.811Z,24.50
2022-11-11T21:56:08.326Z,24.30
2022-11-11T21:59:01.065Z,24.10
2022-11-11T22:01:51.314Z,23.80
2022-11-11T22:04:41.666Z,23.90
2022-11-11T22:07:31.715Z,23.70
2022-11-11T22:10:21.522Z,23.60
2022-11-11T22:13:11.240Z,23.60
2022-11-11T22:16:04.565Z,23.70
2022-11-11T22:18:56.973Z,24.00
2022-11-11T22:21:49.045Z,24.10
2022-11-11T22:24:38.776Z,24.10
2022-11-11T22:27:28.494Z,24.00
2022-11-11T22:30:18.557Z,24.00
2022-11-11T22:33:08.499Z,24.10
2022-11-11T22:36:03.308Z,24.20
2022-11-11T22:38:53.361Z,24.10
2022-11-11T22:41:43.880Z,23.90
2022-11-11T22:44:33.924Z,23.90
2022-11-11T22:47:23.729Z,23.80
2022-11-11T22:50:14.127Z,23.70
2022-11-11T22:53:03.952Z,23.70
2022-11-11T22:55:53.544Z,23.70
2022-11-11T22:58:48.476Z,23.70
2022-11-11T23:01:38.222Z,23.80
2022-11-11T23:04:28.268Z,23.60
2022-11-11T23:07:18.683Z,23.50
2022-11-11T23:10:08.884Z,23.50
2022-11-11T23:12:58.911Z,23.50
2022-11-11T23:15:56.732Z,23.60
2022-11-11T23:18:47.558Z,23.60
2022-11-11T23:21:38.146Z,23.40
2022-11-11T23:24:28.305Z,23.50
2022-11-11T23:27:18.592Z,23.70
2022-11-11T23:30:08.672Z,23.70
2022-11-11T23:32:58.755Z,23.80
2022-11-11T23:35:48.417Z,23.80
2022-11-11T23:38:39.000Z,23.80
2022-11-11T23:41:29.849Z,23.80
2022-11-11T23:44:19.942Z,23.80
2022-11-11T23:47:09.847Z,23.80
2022-11-11T23:49:59.971Z,23.90
2022-11-11T23:52:49.788Z,24.10
2022-11-11T23:55:39.692Z,24.10
2022-11-11T23:58:30.024Z,24.30
